sensor_id;sensor_type;location;lat;lon;timestamp;temperature;humidity
21508;DHT22;10915;54.352;9.074;2022-12-08T00:02:12;2.20;99.90
21508;DHT22;10915;54.352;9.074;2022-12-08T00:04:38;2.20;99.90
21508;DHT22;10915;54.352;9.074;2022-12-08T00:07:24;2.30;99.90
21508;DHT22;10915;54.352;9.074;2022-12-08T00:10:09;2.30;99.90
21508;DHT22;10915;54.352;9.074;2022-12-08T00:12:34;2.30;99.90
21508;DHT22;10915;54.352;9.074;2022-12-08T00:15:00;2.30;99.90
21508;DHT22;10915;54.352;9.074;2022-12-08T00:17:26;2.30;99.90
21508;DHT22;10915;54.352;9.074;2022-12-08T00:19:52;2.30;99.90
21508;DHT22;10915;54.352;9.074;2022-12-08T00:22:18;2.30;99.90
21508;DHT22;10915;54.352;9.074;2022-12-08T00:24:44;2.30;99.90
21508;DHT22;10915;54.352;9.074;2022-12-08T00:27:12;2.30;99.90
21508;DHT22;10915;54.352;9.074;2022-12-08T00:29:39;2.20;99.90
21508;DHT22;10915;54.352;9.074;2022-12-08T00:32:05;2.20;99.90
21508;DHT22;10915;54.352;9.074;2022-12-08T00:34:31;2.20;99.90
21508;DHT22;10915;54.352;9.074;2022-12-08T00:36:57;2.20;99.90
21508;DHT22;10915;54.352;9.074;2022-12-08T00:39:22;2.20;99.90
21508;DHT22;10915;54.352;9.074;2022-12-08T00:41:48;2.20;99.90
21508;DHT22;10915;54.352;9.074;2022-12-08T00:44:33;2.20;99.90
21508;DHT22;10915;54.352;9.074;2022-12-08T00:46:59;2.20;99.90
21508;DHT22;10915;54.352;9.074;2022-12-08T00:49:25;2.20;99.90
21508;DHT22;10915;54.352;9.074;2022-12-08T00:51:51;2.20;99.90
21508;DHT22;10915;54.352;9.074;2022-12-08T00:54:17;2.20;99.90
21508;DHT22;10915;54.352;9.074;2022-12-08T00:56:43;2.20;99.90
21508;DHT22;10915;54.352;9.074;2022-12-08T00:59:09;2.20;99.90
21508;DHT22;10915;54.352;9.074;2022-12-08T01:01:35;2.20;99.90
21508;DHT22;10915;54.352;9.074;2022-12-08T01:04:09;2.30;99.90
21508;DHT22;10915;54.352;9.074;2022-12-08T01:06:37;2.20;99.90
21508;DHT22;10915;54.352;9.074;2022-12-08T01:09:04;2.20;99.90
21508;DHT22;10915;54.352;9.074;2022-12-08T01:11:30;2.00;99.90
21508;DHT22;10915;54.352;9.074;2022-12-08T01:13:56;2.10;99.90
21508;DHT22;10915;54.352;9.074;2022-12-08T01:16:28;2.00;99.90
21508;DHT22;10915;54.352;9.074;2022-12-08T01:18:56;2.00;99.90
21508;DHT22;10915;54.352;9.074;2022-12-08T01:21:22;2.00;99.90
21508;DHT22;10915;54.352;9.074;2022-12-08T01:23:48;2.10;99.90
21508;DHT22;10915;54.352;9.074;2022-12-08T01:26:15;2.10;99.90
21508;DHT22;10915;54.352;9.074;2022-12-08T01:28:42;2.10;99.90
21508;DHT22;10915;54.352;9.074;2022-12-08T01:31:13;1.90;99.90
21508;DHT22;10915;54.352;9.074;2022-12-08T01:33:40;1.80;99.90
21508;DHT22;10915;54.352;9.074;2022-12-08T01:36:07;1.80;99.90
21508;DHT22;10915;54.352;9.074;2022-12-08T01:38:33;1.80;99.90
21508;DHT22;10915;54.352;9.074;2022-12-08T01:40:59;1.90;99.90
21508;DHT22;10915;54.352;9.074;2022-12-08T01:43:42;2.00;99.90
21508;DHT22;10915;54.352;9.074;2022-12-08T01:46:09;2.00;99.90
21508;DHT22;10915;54.352;9.074;2022-12-08T01:48:35;1.90;99.90
21508;DHT22;10915;54.352;9.074;2022-12-08T01:51:01;1.90;99.90
21508;DHT22;10915;54.352;9.074;2022-12-08T01:53:29;1.80;99.90
21508;DHT22;10915;54.352;9.074;2022-12-08T01:58:34;1.90;99.90
21508;DHT22;10915;54.352;9.074;2022-12-08T02:01:01;2.00;99.90
21508;DHT22;10915;54.352;9.074;2022-12-08T02:03:41;2.00;99.90
21508;DHT22;10915;54.352;9.074;2022-12-08T02:06:09;2.00;99.90
21508;DHT22;10915;54.352;9.074;2022-12-08T02:08:38;2.00;99.90
21508;DHT22;10915;54.352;9.074;2022-12-08T02:11:08;2.00;99.90
21508;DHT22;10915;54.352;9.074;2022-12-08T02:13:34;2.00;99.90
21508;DHT22;10915;54.352;9.074;2022-12-08T02:16:27;2.00;99.90
21508;DHT22;10915;54.352;9.074;2022-12-08T02:22:19;1.80;99.90
21508;DHT22;10915;54.352;9.074;2022-12-08T02:28:20;1.80;99.90
21508;DHT22;10915;54.352;9.074;2022-12-08T02:31:04;1.70;99.90
21508;DHT22;10915;54.352;9.074;2022-12-08T02:46:54;2.00;99.90
21508;DHT22;10915;54.352;9.074;2022-12-08T02:49:30;1.80;99.90
21508;DHT22;10915;54.352;9.074;2022-12-08T02:54:57;1.70;99.90
21508;DHT22;10915;54.352;9.074;2022-12-08T03:00:22;1.70;99.90
21508;DHT22;10915;54.352;9.074;2022-12-08T03:11:00;1.50;99.90
21508;DHT22;10915;54.352;9.074;2022-12-08T03:13:50;1.50;99.90
21508;DHT22;10915;54.352;9.074;2022-12-08T03:16:21;1.50;99.90
21508;DHT22;10915;54.352;9.074;2022-12-08T03:18:52;1.60;99.90
21508;DHT22;10915;54.352;9.074;2022-12-08T03:21:19;1.50;99.90
21508;DHT22;10915;54.352;9.074;2022-12-08T03:23:47;1.60;99.90
21508;DHT22;10915;54.352;9.074;2022-12-08T03:26:30;1.60;99.90
21508;DHT22;10915;54.352;9.074;2022-12-08T03:28:59;1.60;99.90
21508;DHT22;10915;54.352;9.074;2022-12-08T03:31:29;1.60;99.90
21508;DHT22;10915;54.352;9.074;2022-12-08T03:33:57;1.70;99.90
21508;DHT22;10915;54.352;9.074;2022-12-08T03:36:26;1.70;99.90
21508;DHT22;10915;54.352;9.074;2022-12-08T03:39:01;1.60;99.90
21508;DHT22;10915;54.352;9.074;2022-12-08T03:41:27;1.60;99.90
21508;DHT22;10915;54.352;9.074;2022-12-08T03:44:00;1.60;99.90
21508;DHT22;10915;54.352;9.074;2022-12-08T03:46:30;1.60;99.90
21508;DHT22;10915;54.352;9.074;2022-12-08T03:48:56;1.50;99.90
21508;DHT22;10915;54.352;9.074;2022-12-08T03:51:26;1.50;99.90
21508;DHT22;10915;54.352;9.074;2022-12-08T03:53:52;1.50;99.90
21508;DHT22;10915;54.352;9.074;2022-12-08T03:56:28;1.40;99.90
21508;DHT22;10915;54.352;9.074;2022-12-08T03:58:55;1.40;99.90
21508;DHT22;10915;54.352;9.074;2022-12-08T04:01:21;1.30;99.90
21508;DHT22;10915;54.352;9.074;2022-12-08T04:03:47;1.30;99.90
21508;DHT22;10915;54.352;9.074;2022-12-08T04:06:20;1.30;99.90
21508;DHT22;10915;54.352;9.074;2022-12-08T04:08:54;1.30;99.90
21508;DHT22;10915;54.352;9.074;2022-12-08T04:11:20;1.30;99.90
21508;DHT22;10915;54.352;9.074;2022-12-08T04:13:46;1.20;99.90
21508;DHT22;10915;54.352;9.074;2022-12-08T04:16:20;1.10;99.90
21508;DHT22;10915;54.352;9.074;2022-12-08T04:18:46;1.10;99.90
21508;DHT22;10915;54.352;9.074;2022-12-08T04:21:12;1.00;99.90
21508;DHT22;10915;54.352;9.074;2022-12-08T04:23:38;1.00;99.90
21508;DHT22;10915;54.352;9.074;2022-12-08T04:26:04;0.90;99.90
21508;DHT22;10915;54.352;9.074;2022-12-08T04:28:30;1.00;99.90
21508;DHT22;10915;54.352;9.074;2022-12-08T04:30:56;1.00;99.90
21508;DHT22;10915;54.352;9.074;2022-12-08T04:33:25;1.00;99.90
21508;DHT22;10915;54.352;9.074;2022-12-08T04:35:50;1.10;99.90
21508;DHT22;10915;54.352;9.074;2022-12-08T04:38:16;1.10;99.90
21508;DHT22;10915;54.352;9.074;2022-12-08T04:40:42;1.10;99.90
21508;DHT22;10915;54.352;9.074;2022-12-08T04:43:08;1.10;99.90
21508;DHT22;10915;54.352;9.074;2022-12-08T04:45:38;1.10;99.90
21508;DHT22;10915;54.352;9.074;2022-12-08T04:48:16;1.20;99.90
21508;DHT22;10915;54.352;9.074;2022-12-08T04:50:53;1.30;99.90
21508;DHT22;10915;54.352;9.074;2022-12-08T04:53:19;1.30;99.90
21508;DHT22;10915;54.352;9.074;2022-12-08T04:55:45;1.30;99.90
21508;DHT22;10915;54.352;9.074;2022-12-08T04:58:15;1.30;99.90
21508;DHT22;10915;54.352;9.074;2022-12-08T05:00:41;1.20;99.90
21508;DHT22;10915;54.352;9.074;2022-12-08T05:03:10;1.20;99.90
21508;DHT22;10915;54.352;9.074;2022-12-08T05:05:35;1.20;99.90
21508;DHT22;10915;54.352;9.074;2022-12-08T05:08:02;1.20;99.90
21508;DHT22;10915;54.352;9.074;2022-12-08T05:10:31;1.20;99.90
21508;DHT22;10915;54.352;9.074;2022-12-08T05:13:08;1.30;99.90
21508;DHT22;10915;54.352;9.074;2022-12-08T05:18:30;1.40;99.90
21508;DHT22;10915;54.352;9.074;2022-12-08T05:20:58;1.40;99.90
21508;DHT22;10915;54.352;9.074;2022-12-08T05:23:30;1.40;99.90
21508;DHT22;10915;54.352;9.074;2022-12-08T05:25:59;1.40;99.90
21508;DHT22;10915;54.352;9.074;2022-12-08T05:28:26;1.30;99.90
21508;DHT22;10915;54.352;9.074;2022-12-08T05:30:55;1.40;99.90
21508;DHT22;10915;54.352;9.074;2022-12-08T05:33:24;1.40;99.90
21508;DHT22;10915;54.352;9.074;2022-12-08T05:36:08;1.40;99.90
21508;DHT22;10915;54.352;9.074;2022-12-08T05:38:35;1.50;99.90
21508;DHT22;10915;54.352;9.074;2022-12-08T05:41:01;1.50;99.90
21508;DHT22;10915;54.352;9.074;2022-12-08T05:43:27;1.50;99.90
21508;DHT22;10915;54.352;9.074;2022-12-08T05:45:56;1.50;99.90
21508;DHT22;10915;54.352;9.074;2022-12-08T05:48:22;1.50;99.90
21508;DHT22;10915;54.352;9.074;2022-12-08T05:50:49;1.50;99.90
21508;DHT22;10915;54.352;9.074;2022-12-08T05:53:19;1.50;99.90
21508;DHT22;10915;54.352;9.074;2022-12-08T05:55:45;1.40;99.90
21508;DHT22;10915;54.352;9.074;2022-12-08T05:58:19;1.40;99.90
21508;DHT22;10915;54.352;9.074;2022-12-08T06:00:46;1.40;99.90
21508;DHT22;10915;54.352;9.074;2022-12-08T06:03:22;1.30;99.90
21508;DHT22;10915;54.352;9.074;2022-12-08T06:05:52;1.30;99.90
21508;DHT22;10915;54.352;9.074;2022-12-08T06:08:20;1.30;99.90
21508;DHT22;10915;54.352;9.074;2022-12-08T06:10:49;1.30;99.90
21508;DHT22;10915;54.352;9.074;2022-12-08T06:13:23;1.40;99.90
21508;DHT22;10915;54.352;9.074;2022-12-08T06:15:53;1.30;99.90
21508;DHT22;10915;54.352;9.074;2022-12-08T06:18:28;1.30;99.90
21508;DHT22;10915;54.352;9.074;2022-12-08T06:21:09;1.30;99.90
21508;DHT22;10915;54.352;9.074;2022-12-08T06:30:43;1.30;99.90
21508;DHT22;10915;54.352;9.074;2022-12-08T06:36:36;1.30;99.90
21508;DHT22;10915;54.352;9.074;2022-12-08T06:39:02;1.30;99.90
21508;DHT22;10915;54.352;9.074;2022-12-08T06:41:28;1.30;99.90
21508;DHT22;10915;54.352;9.074;2022-12-08T06:43:57;1.30;99.90
21508;DHT22;10915;54.352;9.074;2022-12-08T06:46:23;1.30;99.90
21508;DHT22;10915;54.352;9.074;2022-12-08T06:48:49;1.30;99.90
21508;DHT22;10915;54.352;9.074;2022-12-08T06:51:20;1.30;99.90
21508;DHT22;10915;54.352;9.074;2022-12-08T06:53:47;1.30;99.90
21508;DHT22;10915;54.352;9.074;2022-12-08T06:56:13;1.20;99.90
21508;DHT22;10915;54.352;9.074;2022-12-08T06:58:40;1.20;99.90
21508;DHT22;10915;54.352;9.074;2022-12-08T07:01:11;1.00;99.90
21508;DHT22;10915;54.352;9.074;2022-12-08T07:03:38;1.00;99.90
21508;DHT22;10915;54.352;9.074;2022-12-08T07:06:04;1.00;99.90
21508;DHT22;10915;54.352;9.074;2022-12-08T07:08:31;1.10;99.90
21508;DHT22;10915;54.352;9.074;2022-12-08T07:10:57;1.10;99.90
21508;DHT22;10915;54.352;9.074;2022-12-08T07:13:23;1.00;99.90
21508;DHT22;10915;54.352;9.074;2022-12-08T07:15:48;0.80;99.90
21508;DHT22;10915;54.352;9.074;2022-12-08T07:18:14;0.80;99.90
21508;DHT22;10915;54.352;9.074;2022-12-08T07:20:40;0.80;99.90
21508;DHT22;10915;54.352;9.074;2022-12-08T07:23:05;0.80;99.90
21508;DHT22;10915;54.352;9.074;2022-12-08T07:25:31;0.80;99.90
21508;DHT22;10915;54.352;9.074;2022-12-08T07:27:57;0.70;99.90
21508;DHT22;10915;54.352;9.074;2022-12-08T07:30:22;0.60;99.90
21508;DHT22;10915;54.352;9.074;2022-12-08T07:32:48;0.60;99.90
21508;DHT22;10915;54.352;9.074;2022-12-08T07:35:14;0.60;99.90
21508;DHT22;10915;54.352;9.074;2022-12-08T07:37:40;0.60;99.90
21508;DHT22;10915;54.352;9.074;2022-12-08T07:40:07;0.60;99.90
21508;DHT22;10915;54.352;9.074;2022-12-08T07:42:33;0.60;99.90
21508;DHT22;10915;54.352;9.074;2022-12-08T07:44:59;0.60;99.90
21508;DHT22;10915;54.352;9.074;2022-12-08T07:47:25;0.60;99.90
21508;DHT22;10915;54.352;9.074;2022-12-08T07:49:51;0.60;99.90
21508;DHT22;10915;54.352;9.074;2022-12-08T07:52:16;0.60;99.90
21508;DHT22;10915;54.352;9.074;2022-12-08T07:54:42;0.70;99.90
21508;DHT22;10915;54.352;9.074;2022-12-08T07:57:07;0.70;99.90
21508;DHT22;10915;54.352;9.074;2022-12-08T07:59:34;0.90;99.90
21508;DHT22;10915;54.352;9.074;2022-12-08T08:02:00;0.90;99.90
21508;DHT22;10915;54.352;9.074;2022-12-08T08:04:25;1.00;99.90
21508;DHT22;10915;54.352;9.074;2022-12-08T08:06:51;1.00;99.90
21508;DHT22;10915;54.352;9.074;2022-12-08T08:09:17;1.00;99.90
21508;DHT22;10915;54.352;9.074;2022-12-08T08:11:42;1.00;99.90
21508;DHT22;10915;54.352;9.074;2022-12-08T08:14:08;1.10;99.90
21508;DHT22;10915;54.352;9.074;2022-12-08T08:16:34;1.10;99.90
21508;DHT22;10915;54.352;9.074;2022-12-08T08:18:59;1.10;99.90
21508;DHT22;10915;54.352;9.074;2022-12-08T08:21:25;1.30;99.90
21508;DHT22;10915;54.352;9.074;2022-12-08T08:23:50;1.20;99.90
21508;DHT22;10915;54.352;9.074;2022-12-08T08:26:16;1.20;99.90
21508;DHT22;10915;54.352;9.074;2022-12-08T08:28:42;1.10;99.90
21508;DHT22;10915;54.352;9.074;2022-12-08T08:31:10;1.10;99.90
21508;DHT22;10915;54.352;9.074;2022-12-08T08:33:36;1.10;99.90
21508;DHT22;10915;54.352;9.074;2022-12-08T08:36:08;1.10;99.90
21508;DHT22;10915;54.352;9.074;2022-12-08T08:38:35;1.00;99.90
21508;DHT22;10915;54.352;9.074;2022-12-08T08:41:08;0.90;99.90
21508;DHT22;10915;54.352;9.074;2022-12-08T08:43:34;0.80;99.90
21508;DHT22;10915;54.352;9.074;2022-12-08T08:46:03;0.80;99.90
21508;DHT22;10915;54.352;9.074;2022-12-08T08:48:30;0.80;99.90
21508;DHT22;10915;54.352;9.074;2022-12-08T08:50:56;0.80;99.90
21508;DHT22;10915;54.352;9.074;2022-12-08T08:53:23;0.80;99.90
21508;DHT22;10915;54.352;9.074;2022-12-08T08:55:50;0.70;99.90
21508;DHT22;10915;54.352;9.074;2022-12-08T08:58:16;0.60;99.90
21508;DHT22;10915;54.352;9.074;2022-12-08T09:00:42;0.50;99.90
21508;DHT22;10915;54.352;9.074;2022-12-08T09:03:09;0.40;99.90
21508;DHT22;10915;54.352;9.074;2022-12-08T09:05:37;0.40;99.90
21508;DHT22;10915;54.352;9.074;2022-12-08T09:08:04;0.40;99.90
21508;DHT22;10915;54.352;9.074;2022-12-08T09:10:30;0.50;99.90
21508;DHT22;10915;54.352;9.074;2022-12-08T09:12:56;0.50;99.90
21508;DHT22;10915;54.352;9.074;2022-12-08T09:15:22;0.40;99.90
21508;DHT22;10915;54.352;9.074;2022-12-08T09:17:48;0.40;99.90
21508;DHT22;10915;54.352;9.074;2022-12-08T09:20:13;0.50;99.90
21508;DHT22;10915;54.352;9.074;2022-12-08T09:22:39;0.40;99.90
21508;DHT22;10915;54.352;9.074;2022-12-08T09:25:05;0.50;99.90
21508;DHT22;10915;54.352;9.074;2022-12-08T09:27:31;0.50;99.90
21508;DHT22;10915;54.352;9.074;2022-12-08T09:29:56;0.50;99.90
21508;DHT22;10915;54.352;9.074;2022-12-08T09:32:22;0.60;99.90
21508;DHT22;10915;54.352;9.074;2022-12-08T09:34:48;0.60;99.90
21508;DHT22;10915;54.352;9.074;2022-12-08T09:37:13;0.60;99.90
21508;DHT22;10915;54.352;9.074;2022-12-08T09:39:39;0.50;99.90
21508;DHT22;10915;54.352;9.074;2022-12-08T09:42:05;0.50;99.90
21508;DHT22;10915;54.352;9.074;2022-12-08T09:47:28;0.10;99.90
21508;DHT22;10915;54.352;9.074;2022-12-08T09:53:13;0.00;99.90
21508;DHT22;10915;54.352;9.074;2022-12-08T09:55:48;0.10;99.90
21508;DHT22;10915;54.352;9.074;2022-12-08T10:01:03;0.00;99.90
21508;DHT22;10915;54.352;9.074;2022-12-08T10:03:29;0.20;99.90
21508;DHT22;10915;54.352;9.074;2022-12-08T10:06:20;0.30;99.90
21508;DHT22;10915;54.352;9.074;2022-12-08T10:12:03;0.10;99.90
21508;DHT22;10915;54.352;9.074;2022-12-08T10:17:41;0.20;99.90
21508;DHT22;10915;54.352;9.074;2022-12-08T10:20:14;0.20;99.90
21508;DHT22;10915;54.352;9.074;2022-12-08T10:22:40;0.30;99.90
21508;DHT22;10915;54.352;9.074;2022-12-08T10:27:36;0.30;99.90
21508;DHT22;10915;54.352;9.074;2022-12-08T10:30:12;0.40;99.90
21508;DHT22;10915;54.352;9.074;2022-12-08T10:32:40;0.30;99.90
21508;DHT22;10915;54.352;9.074;2022-12-08T10:35:11;0.30;99.90
21508;DHT22;10915;54.352;9.074;2022-12-08T10:37:37;0.30;99.90
21508;DHT22;10915;54.352;9.074;2022-12-08T10:40:10;0.30;99.90
21508;DHT22;10915;54.352;9.074;2022-12-08T10:42:46;0.20;99.90
21508;DHT22;10915;54.352;9.074;2022-12-08T10:45:28;0.20;99.90
21508;DHT22;10915;54.352;9.074;2022-12-08T10:55:44;0.40;99.90
21508;DHT22;10915;54.352;9.074;2022-12-08T10:58:26;0.50;99.90
21508;DHT22;10915;54.352;9.074;2022-12-08T11:01:00;0.40;99.90
21508;DHT22;10915;54.352;9.074;2022-12-08T11:03:34;0.40;99.90
21508;DHT22;10915;54.352;9.074;2022-12-08T11:06:18;0.30;99.90
21508;DHT22;10915;54.352;9.074;2022-12-08T11:08:53;0.30;99.90
21508;DHT22;10915;54.352;9.074;2022-12-08T11:11:20;0.30;99.90
21508;DHT22;10915;54.352;9.074;2022-12-08T11:13:49;0.30;99.90
21508;DHT22;10915;54.352;9.074;2022-12-08T11:16:17;0.20;99.90
21508;DHT22;10915;54.352;9.074;2022-12-08T11:18:45;0.20;99.90
21508;DHT22;10915;54.352;9.074;2022-12-08T11:21:17;0.10;99.90
21508;DHT22;10915;54.352;9.074;2022-12-08T11:23:48;0.00;99.90
21508;DHT22;10915;54.352;9.074;2022-12-08T11:26:33;0.20;99.90
21508;DHT22;10915;54.352;9.074;2022-12-08T11:28:59;0.30;99.90
21508;DHT22;10915;54.352;9.074;2022-12-08T11:31:37;0.40;99.90
21508;DHT22;10915;54.352;9.074;2022-12-08T11:34:07;0.40;99.90
21508;DHT22;10915;54.352;9.074;2022-12-08T11:36:36;0.40;99.90
21508;DHT22;10915;54.352;9.074;2022-12-08T11:39:03;0.20;99.90
21508;DHT22;10915;54.352;9.074;2022-12-08T11:41:35;0.10;99.90
21508;DHT22;10915;54.352;9.074;2022-12-08T11:46:45;0.00;99.90
21508;DHT22;10915;54.352;9.074;2022-12-08T11:49:13;0.20;99.90
21508;DHT22;10915;54.352;9.074;2022-12-08T11:51:41;0.30;99.90
21508;DHT22;10915;54.352;9.074;2022-12-08T11:54:21;0.40;99.90
21508;DHT22;10915;54.352;9.074;2022-12-08T11:57:02;0.50;99.90
21508;DHT22;10915;54.352;9.074;2022-12-08T11:59:42;0.50;99.90
21508;DHT22;10915;54.352;9.074;2022-12-08T12:02:20;0.50;99.90
21508;DHT22;10915;54.352;9.074;2022-12-08T12:11:03;0.30;99.90
21508;DHT22;10915;54.352;9.074;2022-12-08T12:19:18;-0.10;99.90
21508;DHT22;10915;54.352;9.074;2022-12-08T12:21:52;0.00;99.90
21508;DHT22;10915;54.352;9.074;2022-12-08T12:24:23;-0.10;99.90
21508;DHT22;10915;54.352;9.074;2022-12-08T12:26:55;-0.10;99.90
21508;DHT22;10915;54.352;9.074;2022-12-08T12:29:24;0.00;99.90
21508;DHT22;10915;54.352;9.074;2022-12-08T12:31:58;-0.10;99.90
21508;DHT22;10915;54.352;9.074;2022-12-08T12:34:47;0.10;99.90
21508;DHT22;10915;54.352;9.074;2022-12-08T12:37:17;0.20;99.90
21508;DHT22;10915;54.352;9.074;2022-12-08T12:40:00;0.30;99.90
21508;DHT22;10915;54.352;9.074;2022-12-08T12:42:43;0.50;99.90
21508;DHT22;10915;54.352;9.074;2022-12-08T12:45:30;0.60;99.90
21508;DHT22;10915;54.352;9.074;2022-12-08T12:52:52;0.60;99.90
21508;DHT22;10915;54.352;9.074;2022-12-08T12:55:20;0.60;99.90
21508;DHT22;10915;54.352;9.074;2022-12-08T12:57:54;0.60;99.90
21508;DHT22;10915;54.352;9.074;2022-12-08T13:00:25;0.60;99.90
21508;DHT22;10915;54.352;9.074;2022-12-08T13:02:54;0.60;99.90
21508;DHT22;10915;54.352;9.074;2022-12-08T13:05:22;0.70;99.90
21508;DHT22;10915;54.352;9.074;2022-12-08T13:08:01;0.80;99.90
21508;DHT22;10915;54.352;9.074;2022-12-08T13:10:33;1.00;99.90
21508;DHT22;10915;54.352;9.074;2022-12-08T13:16:04;1.10;99.90
21508;DHT22;10915;54.352;9.074;2022-12-08T13:18:51;1.20;99.90
21508;DHT22;10915;54.352;9.074;2022-12-08T13:21:20;1.20;99.90
21508;DHT22;10915;54.352;9.074;2022-12-08T13:26:42;1.20;99.90
21508;DHT22;10915;54.352;9.074;2022-12-08T13:29:27;1.30;99.90
21508;DHT22;10915;54.352;9.074;2022-12-08T13:31:59;1.30;99.90
21508;DHT22;10915;54.352;9.074;2022-12-08T13:42:16;1.00;99.90
21508;DHT22;10915;54.352;9.074;2022-12-08T13:44:45;1.00;99.90
21508;DHT22;10915;54.352;9.074;2022-12-08T13:47:19;1.00;99.90
21508;DHT22;10915;54.352;9.074;2022-12-08T13:49:59;1.00;99.90
21508;DHT22;10915;54.352;9.074;2022-12-08T13:52:52;0.90;99.90
21508;DHT22;10915;54.352;9.074;2022-12-08T13:55:25;0.50;99.90
21508;DHT22;10915;54.352;9.074;2022-12-08T13:57:54;0.30;99.90
21508;DHT22;10915;54.352;9.074;2022-12-08T14:00:21;0.40;99.90
21508;DHT22;10915;54.352;9.074;2022-12-08T14:02:49;0.50;99.90
21508;DHT22;10915;54.352;9.074;2022-12-08T14:05:18;0.60;99.90
21508;DHT22;10915;54.352;9.074;2022-12-08T14:07:46;0.70;99.90
21508;DHT22;10915;54.352;9.074;2022-12-08T14:10:22;0.80;99.90
21508;DHT22;10915;54.352;9.074;2022-12-08T14:12:59;0.90;99.90
21508;DHT22;10915;54.352;9.074;2022-12-08T14:15:26;0.90;99.90
21508;DHT22;10915;54.352;9.074;2022-12-08T14:17:54;0.50;99.90
21508;DHT22;10915;54.352;9.074;2022-12-08T14:22:52;0.30;99.90
21508;DHT22;10915;54.352;9.074;2022-12-08T14:25:18;0.10;99.90
21508;DHT22;10915;54.352;9.074;2022-12-08T14:27:45;-0.10;99.90
21508;DHT22;10915;54.352;9.074;2022-12-08T14:32:56;-0.10;99.90
21508;DHT22;10915;54.352;9.074;2022-12-08T14:35:33;-0.10;99.90
21508;DHT22;10915;54.352;9.074;2022-12-08T14:38:14;-0.10;99.90
21508;DHT22;10915;54.352;9.074;2022-12-08T14:40:49;-0.20;99.90
21508;DHT22;10915;54.352;9.074;2022-12-08T14:43:25;-0.10;99.90
21508;DHT22;10915;54.352;9.074;2022-12-08T14:45:58;0.00;99.90
21508;DHT22;10915;54.352;9.074;2022-12-08T14:53:45;0.10;99.90
21508;DHT22;10915;54.352;9.074;2022-12-08T14:56:24;0.10;99.90
21508;DHT22;10915;54.352;9.074;2022-12-08T14:59:26;0.10;99.90
21508;DHT22;10915;54.352;9.074;2022-12-08T15:04:41;0.40;99.90
21508;DHT22;10915;54.352;9.074;2022-12-08T15:07:16;0.40;99.90
21508;DHT22;10915;54.352;9.074;2022-12-08T15:09:45;0.50;99.90
21508;DHT22;10915;54.352;9.074;2022-12-08T15:14:41;0.50;99.90
21508;DHT22;10915;54.352;9.074;2022-12-08T15:18:10;0.40;99.90
21508;DHT22;10915;54.352;9.074;2022-12-08T15:25:44;0.30;99.90
21508;DHT22;10915;54.352;9.074;2022-12-08T15:28:13;0.30;99.90
21508;DHT22;10915;54.352;9.074;2022-12-08T15:30:40;0.30;99.90
21508;DHT22;10915;54.352;9.074;2022-12-08T15:33:05;0.30;99.90
21508;DHT22;10915;54.352;9.074;2022-12-08T15:35:31;0.40;99.90
21508;DHT22;10915;54.352;9.074;2022-12-08T15:37:57;0.40;99.90
21508;DHT22;10915;54.352;9.074;2022-12-08T15:40:23;0.40;99.90
21508;DHT22;10915;54.352;9.074;2022-12-08T15:42:51;0.50;99.90
21508;DHT22;10915;54.352;9.074;2022-12-08T15:45:17;0.60;99.90
21508;DHT22;10915;54.352;9.074;2022-12-08T15:47:44;0.50;99.90
21508;DHT22;10915;54.352;9.074;2022-12-08T15:50:15;0.50;99.90
21508;DHT22;10915;54.352;9.074;2022-12-08T15:52:41;0.50;99.90
21508;DHT22;10915;54.352;9.074;2022-12-08T15:55:15;0.40;99.90
21508;DHT22;10915;54.352;9.074;2022-12-08T16:00:25;0.50;99.90
21508;DHT22;10915;54.352;9.074;2022-12-08T16:02:52;0.60;99.90
21508;DHT22;10915;54.352;9.074;2022-12-08T16:05:18;0.60;99.90
21508;DHT22;10915;54.352;9.074;2022-12-08T16:07:44;0.60;99.90
21508;DHT22;10915;54.352;9.074;2022-12-08T16:10:18;0.60;99.90
21508;DHT22;10915;54.352;9.074;2022-12-08T16:12:45;0.60;99.90
21508;DHT22;10915;54.352;9.074;2022-12-08T16:15:30;0.60;99.90
21508;DHT22;10915;54.352;9.074;2022-12-08T16:17:57;0.60;99.90
21508;DHT22;10915;54.352;9.074;2022-12-08T16:20:22;0.50;99.90
21508;DHT22;10915;54.352;9.074;2022-12-08T16:22:48;0.50;99.90
21508;DHT22;10915;54.352;9.074;2022-12-08T16:25:15;0.50;99.90
21508;DHT22;10915;54.352;9.074;2022-12-08T16:27:41;0.50;99.90
21508;DHT22;10915;54.352;9.074;2022-12-08T16:30:11;0.50;99.90
21508;DHT22;10915;54.352;9.074;2022-12-08T16:32:38;0.60;99.90
21508;DHT22;10915;54.352;9.074;2022-12-08T16:35:04;0.70;99.90
21508;DHT22;10915;54.352;9.074;2022-12-08T16:37:30;0.80;99.90
21508;DHT22;10915;54.352;9.074;2022-12-08T16:39:56;0.90;99.90
21508;DHT22;10915;54.352;9.074;2022-12-08T16:42:33;0.90;99.90
21508;DHT22;10915;54.352;9.074;2022-12-08T16:47:37;1.00;99.90
21508;DHT22;10915;54.352;9.074;2022-12-08T16:50:10;0.90;99.90
21508;DHT22;10915;54.352;9.074;2022-12-08T16:52:36;0.90;99.90
21508;DHT22;10915;54.352;9.074;2022-12-08T16:55:05;0.90;99.90
21508;DHT22;10915;54.352;9.074;2022-12-08T16:57:31;0.90;99.90
21508;DHT22;10915;54.352;9.074;2022-12-08T16:59:56;0.80;99.90
21508;DHT22;10915;54.352;9.074;2022-12-08T17:02:22;0.90;99.90
21508;DHT22;10915;54.352;9.074;2022-12-08T17:04:48;1.00;99.90
21508;DHT22;10915;54.352;9.074;2022-12-08T17:07:13;1.00;99.90
21508;DHT22;10915;54.352;9.074;2022-12-08T17:09:39;0.90;99.90
21508;DHT22;10915;54.352;9.074;2022-12-08T17:12:05;0.90;99.90
21508;DHT22;10915;54.352;9.074;2022-12-08T17:14:33;1.00;99.90
21508;DHT22;10915;54.352;9.074;2022-12-08T17:16:59;1.00;99.90
21508;DHT22;10915;54.352;9.074;2022-12-08T17:19:25;0.90;99.90
21508;DHT22;10915;54.352;9.074;2022-12-08T17:21:51;0.90;99.90
21508;DHT22;10915;54.352;9.074;2022-12-08T17:24:16;0.90;99.90
21508;DHT22;10915;54.352;9.074;2022-12-08T17:26:42;1.00;99.90
21508;DHT22;10915;54.352;9.074;2022-12-08T17:29:07;1.00;99.90
21508;DHT22;10915;54.352;9.074;2022-12-08T17:31:33;1.00;99.90
21508;DHT22;10915;54.352;9.074;2022-12-08T17:34:04;1.00;99.90
21508;DHT22;10915;54.352;9.074;2022-12-08T17:36:32;1.00;99.90
21508;DHT22;10915;54.352;9.074;2022-12-08T17:38:59;1.00;99.90
21508;DHT22;10915;54.352;9.074;2022-12-08T17:41:25;1.00;99.90
21508;DHT22;10915;54.352;9.074;2022-12-08T17:43:50;1.00;99.90
21508;DHT22;10915;54.352;9.074;2022-12-08T17:46:18;1.00;99.90
21508;DHT22;10915;54.352;9.074;2022-12-08T17:48:44;0.90;99.90
21508;DHT22;10915;54.352;9.074;2022-12-08T17:51:10;0.80;99.90
21508;DHT22;10915;54.352;9.074;2022-12-08T17:53:36;0.80;99.90
21508;DHT22;10915;54.352;9.074;2022-12-08T17:56:04;0.80;99.90
21508;DHT22;10915;54.352;9.074;2022-12-08T17:58:30;0.80;99.90
21508;DHT22;10915;54.352;9.074;2022-12-08T18:00:56;0.90;99.90
21508;DHT22;10915;54.352;9.074;2022-12-08T18:03:22;0.90;99.90
21508;DHT22;10915;54.352;9.074;2022-12-08T18:05:48;0.90;99.90
21508;DHT22;10915;54.352;9.074;2022-12-08T18:08:13;0.90;99.90
21508;DHT22;10915;54.352;9.074;2022-12-08T18:10:39;0.80;99.90
21508;DHT22;10915;54.352;9.074;2022-12-08T18:13:06;0.90;99.90
21508;DHT22;10915;54.352;9.074;2022-12-08T18:15:31;1.00;99.90